sensor_id;sensor_type;location;lat;lon;timestamp;P1;durP1;ratioP1;P2;durP2;ratioP2
29330;SDS011;16331;52.528;13.342;2023-01-08T00:02:01;6.47;;;3.33;;
29330;SDS011;16331;52.528;13.342;2023-01-08T00:04:27;5.53;;;3.22;;
29330;SDS011;16331;52.528;13.342;2023-01-08T00:07:08;7.97;;;3.92;;
29330;SDS011;16331;52.528;13.342;2023-01-08T00:09:34;8.50;;;3.90;;
29330;SDS011;16331;52.528;13.342;2023-01-08T00:12:03;10.40;;;4.55;;
29330;SDS011;16331;52.528;13.342;2023-01-08T00:14:29;6.63;;;3.60;;
29330;SDS011;16331;52.528;13.342;2023-01-08T00:16:55;7.63;;;4.20;;
29330;SDS011;16331;52.528;13.342;2023-01-08T00:19:26;7.57;;;3.55;;
29330;SDS011;16331;52.528;13.342;2023-01-08T00:21:54;6.75;;;3.55;;
29330;SDS011;16331;52.528;13.342;2023-01-08T00:24:20;12.18;;;5.30;;
29330;SDS011;16331;52.528;13.342;2023-01-08T00:26:48;17.83;;;6.25;;
29330;SDS011;16331;52.528;13.342;2023-01-08T00:29:15;6.18;;;4.10;;
29330;SDS011;16331;52.528;13.342;2023-01-08T00:31:42;12.95;;;4.78;;
29330;SDS011;16331;52.528;13.342;2023-01-08T00:34:09;9.98;;;4.75;;
29330;SDS011;16331;52.528;13.342;2023-01-08T00:36:35;10.55;;;5.30;;
29330;SDS011;16331;52.528;13.342;2023-01-08T00:39:02;5.07;;;3.30;;
29330;SDS011;16331;52.528;13.342;2023-01-08T00:41:29;6.40;;;3.10;;
29330;SDS011;16331;52.528;13.342;2023-01-08T00:43:55;9.48;;;4.13;;
29330;SDS011;16331;52.528;13.342;2023-01-08T00:46:22;8.88;;;4.15;;
29330;SDS011;16331;52.528;13.342;2023-01-08T00:48:50;5.68;;;3.65;;
29330;SDS011;16331;52.528;13.342;2023-01-08T00:51:19;6.43;;;3.70;;
29330;SDS011;16331;52.528;13.342;2023-01-08T00:53:46;9.63;;;3.75;;
29330;SDS011;16331;52.528;13.342;2023-01-08T00:56:12;6.25;;;3.33;;
29330;SDS011;16331;52.528;13.342;2023-01-08T00:58:39;6.13;;;3.55;;
29330;SDS011;16331;52.528;13.342;2023-01-08T01:01:11;5.53;;;3.40;;
29330;SDS011;16331;52.528;13.342;2023-01-08T01:03:39;9.05;;;3.97;;
29330;SDS011;16331;52.528;13.342;2023-01-08T01:06:06;9.13;;;3.78;;
29330;SDS011;16331;52.528;13.342;2023-01-08T01:08:33;6.78;;;4.00;;
29330;SDS011;16331;52.528;13.342;2023-01-08T01:10:59;7.13;;;3.75;;
29330;SDS011;16331;52.528;13.342;2023-01-08T01:13:30;10.02;;;4.32;;
29330;SDS011;16331;52.528;13.342;2023-01-08T01:15:59;7.25;;;3.65;;
29330;SDS011;16331;52.528;13.342;2023-01-08T01:18:26;9.27;;;3.88;;
29330;SDS011;16331;52.528;13.342;2023-01-08T01:20:56;6.20;;;3.95;;
29330;SDS011;16331;52.528;13.342;2023-01-08T01:23:22;9.05;;;4.05;;
29330;SDS011;16331;52.528;13.342;2023-01-08T01:25:48;5.93;;;3.78;;
29330;SDS011;16331;52.528;13.342;2023-01-08T01:28:15;7.85;;;3.63;;
29330;SDS011;16331;52.528;13.342;2023-01-08T01:30:43;8.70;;;4.88;;
29330;SDS011;16331;52.528;13.342;2023-01-08T01:33:12;9.27;;;4.30;;
29330;SDS011;16331;52.528;13.342;2023-01-08T01:35:40;10.80;;;4.22;;
29330;SDS011;16331;52.528;13.342;2023-01-08T01:38:08;6.65;;;3.80;;
29330;SDS011;16331;52.528;13.342;2023-01-08T01:40:40;10.45;;;4.60;;
29330;SDS011;16331;52.528;13.342;2023-01-08T01:43:31;12.38;;;3.67;;
29330;SDS011;16331;52.528;13.342;2023-01-08T01:46:01;6.80;;;4.43;;
29330;SDS011;16331;52.528;13.342;2023-01-08T01:48:30;8.55;;;4.28;;
29330;SDS011;16331;52.528;13.342;2023-01-08T01:50:58;6.97;;;4.07;;
29330;SDS011;16331;52.528;13.342;2023-01-08T01:53:28;8.38;;;4.03;;
29330;SDS011;16331;52.528;13.342;2023-01-08T01:55:56;8.32;;;4.82;;
29330;SDS011;16331;52.528;13.342;2023-01-08T01:58:25;7.20;;;4.38;;
29330;SDS011;16331;52.528;13.342;2023-01-08T02:00:53;9.45;;;4.15;;
29330;SDS011;16331;52.528;13.342;2023-01-08T02:03:24;8.27;;;4.50;;
29330;SDS011;16331;52.528;13.342;2023-01-08T02:05:55;9.77;;;5.03;;
29330;SDS011;16331;52.528;13.342;2023-01-08T02:08:55;7.35;;;4.32;;
29330;SDS011;16331;52.528;13.342;2023-01-08T02:14:53;7.82;;;4.18;;
29330;SDS011;16331;52.528;13.342;2023-01-08T02:17:54;8.80;;;4.78;;
29330;SDS011;16331;52.528;13.342;2023-01-08T02:20:36;10.68;;;4.97;;
29330;SDS011;16331;52.528;13.342;2023-01-08T02:23:39;10.23;;;4.82;;
29330;SDS011;16331;52.528;13.342;2023-01-08T02:31:29;11.45;;;4.65;;
29330;SDS011;16331;52.528;13.342;2023-01-08T02:33:56;10.30;;;5.45;;
29330;SDS011;16331;52.528;13.342;2023-01-08T02:41:56;11.07;;;4.82;;
29330;SDS011;16331;52.528;13.342;2023-01-08T02:47:02;11.50;;;5.18;;
29330;SDS011;16331;52.528;13.342;2023-01-08T02:49:34;9.10;;;5.05;;
29330;SDS011;16331;52.528;13.342;2023-01-08T02:52:10;14.02;;;6.05;;
29330;SDS011;16331;52.528;13.342;2023-01-08T02:54:40;10.82;;;6.03;;
29330;SDS011;16331;52.528;13.342;2023-01-08T02:57:10;9.10;;;4.88;;
29330;SDS011;16331;52.528;13.342;2023-01-08T02:59:39;8.65;;;5.18;;
29330;SDS011;16331;52.528;13.342;2023-01-08T03:02:13;9.85;;;5.82;;
29330;SDS011;16331;52.528;13.342;2023-01-08T03:04:42;10.23;;;5.47;;
29330;SDS011;16331;52.528;13.342;2023-01-08T03:07:15;17.17;;;5.18;;
29330;SDS011;16331;52.528;13.342;2023-01-08T03:09:43;9.38;;;5.53;;
29330;SDS011;16331;52.528;13.342;2023-01-08T03:12:13;11.45;;;5.65;;
29330;SDS011;16331;52.528;13.342;2023-01-08T03:14:51;10.85;;;5.55;;
29330;SDS011;16331;52.528;13.342;2023-01-08T03:17:31;9.70;;;5.15;;
29330;SDS011;16331;52.528;13.342;2023-01-08T03:20:24;19.38;;;6.45;;
29330;SDS011;16331;52.528;13.342;2023-01-08T03:22:54;10.73;;;5.65;;
29330;SDS011;16331;52.528;13.342;2023-01-08T03:25:24;9.65;;;5.18;;
29330;SDS011;16331;52.528;13.342;2023-01-08T03:28:00;12.40;;;5.88;;
29330;SDS011;16331;52.528;13.342;2023-01-08T03:30:29;11.40;;;5.30;;
29330;SDS011;16331;52.528;13.342;2023-01-08T03:32:57;11.25;;;5.80;;
29330;SDS011;16331;52.528;13.342;2023-01-08T03:35:25;12.00;;;5.75;;
29330;SDS011;16331;52.528;13.342;2023-01-08T03:38:02;14.20;;;6.00;;
29330;SDS011;16331;52.528;13.342;2023-01-08T03:40:34;11.52;;;5.20;;
29330;SDS011;16331;52.528;13.342;2023-01-08T03:43:05;12.25;;;5.93;;
29330;SDS011;16331;52.528;13.342;2023-01-08T03:45:31;11.52;;;6.43;;
29330;SDS011;16331;52.528;13.342;2023-01-08T03:48:01;11.63;;;5.90;;
29330;SDS011;16331;52.528;13.342;2023-01-08T03:50:31;12.40;;;6.80;;
29330;SDS011;16331;52.528;13.342;2023-01-08T03:52:58;11.82;;;6.30;;
29330;SDS011;16331;52.528;13.342;2023-01-08T03:55:25;20.05;;;8.20;;
29330;SDS011;16331;52.528;13.342;2023-01-08T03:57:51;12.25;;;6.15;;
29330;SDS011;16331;52.528;13.342;2023-01-08T04:00:17;13.50;;;6.55;;
29330;SDS011;16331;52.528;13.342;2023-01-08T04:02:45;13.75;;;6.25;;
29330;SDS011;16331;52.528;13.342;2023-01-08T04:05:11;19.70;;;7.90;;
29330;SDS011;16331;52.528;13.342;2023-01-08T04:07:37;15.57;;;9.27;;
29330;SDS011;16331;52.528;13.342;2023-01-08T04:10:04;12.07;;;6.10;;
29330;SDS011;16331;52.528;13.342;2023-01-08T04:12:31;13.50;;;6.38;;
29330;SDS011;16331;52.528;13.342;2023-01-08T04:14:57;11.75;;;6.35;;
29330;SDS011;16331;52.528;13.342;2023-01-08T04:17:24;15.93;;;6.45;;
29330;SDS011;16331;52.528;13.342;2023-01-08T04:19:50;11.98;;;6.05;;
29330;SDS011;16331;52.528;13.342;2023-01-08T04:22:18;15.88;;;6.80;;
29330;SDS011;16331;52.528;13.342;2023-01-08T04:24:45;12.23;;;6.78;;
29330;SDS011;16331;52.528;13.342;2023-01-08T04:27:14;12.85;;;6.30;;
29330;SDS011;16331;52.528;13.342;2023-01-08T04:29:40;13.43;;;6.43;;
29330;SDS011;16331;52.528;13.342;2023-01-08T04:32:06;14.02;;;7.07;;
29330;SDS011;16331;52.528;13.342;2023-01-08T04:34:33;13.82;;;6.43;;
29330;SDS011;16331;52.528;13.342;2023-01-08T04:37:00;11.02;;;6.32;;
29330;SDS011;16331;52.528;13.342;2023-01-08T04:39:27;13.48;;;6.90;;
29330;SDS011;16331;52.528;13.342;2023-01-08T04:41:53;12.40;;;6.63;;
29330;SDS011;16331;52.528;13.342;2023-01-08T04:44:20;15.70;;;6.88;;
29330;SDS011;16331;52.528;13.342;2023-01-08T04:46:47;15.75;;;5.95;;
29330;SDS011;16331;52.528;13.342;2023-01-08T04:49:14;11.82;;;5.88;;
29330;SDS011;16331;52.528;13.342;2023-01-08T04:51:41;11.10;;;6.30;;
29330;SDS011;16331;52.528;13.342;2023-01-08T04:54:08;11.35;;;5.85;;
29330;SDS011;16331;52.528;13.342;2023-01-08T04:56:35;12.88;;;6.55;;
29330;SDS011;16331;52.528;13.342;2023-01-08T04:59:01;11.93;;;5.95;;
29330;SDS011;16331;52.528;13.342;2023-01-08T05:01:27;18.77;;;7.25;;
29330;SDS011;16331;52.528;13.342;2023-01-08T05:03:54;12.63;;;6.35;;
29330;SDS011;16331;52.528;13.342;2023-01-08T05:06:25;12.55;;;6.20;;
29330;SDS011;16331;52.528;13.342;2023-01-08T05:08:52;15.98;;;6.57;;
29330;SDS011;16331;52.528;13.342;2023-01-08T05:11:19;11.23;;;5.68;;
29330;SDS011;16331;52.528;13.342;2023-01-08T05:13:50;13.93;;;6.75;;
29330;SDS011;16331;52.528;13.342;2023-01-08T05:16:18;12.57;;;6.30;;
29330;SDS011;16331;52.528;13.342;2023-01-08T05:18:44;11.25;;;6.03;;
29330;SDS011;16331;52.528;13.342;2023-01-08T05:21:13;11.02;;;6.10;;
29330;SDS011;16331;52.528;13.342;2023-01-08T05:23:43;10.13;;;5.95;;
29330;SDS011;16331;52.528;13.342;2023-01-08T05:26:12;16.00;;;7.20;;
29330;SDS011;16331;52.528;13.342;2023-01-08T05:28:39;12.27;;;5.80;;
29330;SDS011;16331;52.528;13.342;2023-01-08T05:31:08;12.52;;;5.70;;
29330;SDS011;16331;52.528;13.342;2023-01-08T05:33:36;12.65;;;6.25;;
29330;SDS011;16331;52.528;13.342;2023-01-08T05:36:05;11.32;;;5.50;;
29330;SDS011;16331;52.528;13.342;2023-01-08T05:38:32;14.80;;;6.57;;
29330;SDS011;16331;52.528;13.342;2023-01-08T05:40:58;11.75;;;6.60;;
29330;SDS011;16331;52.528;13.342;2023-01-08T05:43:25;11.55;;;5.80;;
29330;SDS011;16331;52.528;13.342;2023-01-08T05:45:52;10.13;;;5.63;;
29330;SDS011;16331;52.528;13.342;2023-01-08T05:48:18;10.10;;;6.00;;
29330;SDS011;16331;52.528;13.342;2023-01-08T05:50:44;13.23;;;5.63;;
29330;SDS011;16331;52.528;13.342;2023-01-08T05:53:12;12.63;;;5.88;;
29330;SDS011;16331;52.528;13.342;2023-01-08T05:55:38;11.85;;;5.55;;
29330;SDS011;16331;52.528;13.342;2023-01-08T05:58:05;12.48;;;6.03;;
29330;SDS011;16331;52.528;13.342;2023-01-08T06:00:32;9.90;;;4.90;;
29330;SDS011;16331;52.528;13.342;2023-01-08T06:02:58;9.35;;;4.63;;
29330;SDS011;16331;52.528;13.342;2023-01-08T06:05:26;12.57;;;5.60;;
29330;SDS011;16331;52.528;13.342;2023-01-08T06:07:54;13.75;;;6.63;;
29330;SDS011;16331;52.528;13.342;2023-01-08T06:10:22;11.40;;;4.47;;
29330;SDS011;16331;52.528;13.342;2023-01-08T06:12:48;10.02;;;5.25;;
29330;SDS011;16331;52.528;13.342;2023-01-08T06:15:15;9.30;;;5.72;;
29330;SDS011;16331;52.528;13.342;2023-01-08T06:17:41;18.88;;;5.15;;
29330;SDS011;16331;52.528;13.342;2023-01-08T06:20:07;9.07;;;5.32;;
29330;SDS011;16331;52.528;13.342;2023-01-08T06:22:34;17.92;;;5.22;;
29330;SDS011;16331;52.528;13.342;2023-01-08T06:25:01;8.57;;;4.75;;
29330;SDS011;16331;52.528;13.342;2023-01-08T06:27:28;9.10;;;4.75;;
29330;SDS011;16331;52.528;13.342;2023-01-08T06:29:54;8.25;;;4.35;;
29330;SDS011;16331;52.528;13.342;2023-01-08T06:32:20;9.68;;;5.18;;
29330;SDS011;16331;52.528;13.342;2023-01-08T06:34:46;8.18;;;4.60;;
29330;SDS011;16331;52.528;13.342;2023-01-08T06:37:12;12.07;;;6.07;;
29330;SDS011;16331;52.528;13.342;2023-01-08T06:39:38;6.82;;;4.50;;
29330;SDS011;16331;52.528;13.342;2023-01-08T06:42:05;9.65;;;5.25;;
29330;SDS011;16331;52.528;13.342;2023-01-08T06:44:31;7.75;;;4.68;;
29330;SDS011;16331;52.528;13.342;2023-01-08T06:46:57;11.73;;;4.57;;
29330;SDS011;16331;52.528;13.342;2023-01-08T06:49:23;9.93;;;5.07;;
29330;SDS011;16331;52.528;13.342;2023-01-08T06:51:49;7.95;;;4.65;;
29330;SDS011;16331;52.528;13.342;2023-01-08T06:54:15;10.40;;;4.47;;
29330;SDS011;16331;52.528;13.342;2023-01-08T06:56:41;8.95;;;4.88;;
29330;SDS011;16331;52.528;13.342;2023-01-08T06:59:07;8.35;;;4.35;;
29330;SDS011;16331;52.528;13.342;2023-01-08T07:01:33;12.50;;;5.00;;
29330;SDS011;16331;52.528;13.342;2023-01-08T07:04:00;7.60;;;4.25;;
29330;SDS011;16331;52.528;13.342;2023-01-08T07:06:26;7.05;;;4.05;;
29330;SDS011;16331;52.528;13.342;2023-01-08T07:08:52;6.43;;;3.75;;
29330;SDS011;16331;52.528;13.342;2023-01-08T07:11:18;8.60;;;4.07;;
29330;SDS011;16331;52.528;13.342;2023-01-08T07:13:45;7.90;;;4.22;;
29330;SDS011;16331;52.528;13.342;2023-01-08T07:16:13;9.02;;;4.25;;
29330;SDS011;16331;52.528;13.342;2023-01-08T07:18:40;7.97;;;4.45;;
29330;SDS011;16331;52.528;13.342;2023-01-08T07:21:07;7.05;;;4.72;;
29330;SDS011;16331;52.528;13.342;2023-01-08T07:23:34;8.48;;;4.45;;
29330;SDS011;16331;52.528;13.342;2023-01-08T07:26:04;6.38;;;3.55;;
29330;SDS011;16331;52.528;13.342;2023-01-08T07:28:32;6.80;;;3.78;;
29330;SDS011;16331;52.528;13.342;2023-01-08T07:31:02;9.02;;;4.20;;
29330;SDS011;16331;52.528;13.342;2023-01-08T07:33:31;6.68;;;3.60;;
29330;SDS011;16331;52.528;13.342;2023-01-08T07:35:57;8.88;;;4.10;;
29330;SDS011;16331;52.528;13.342;2023-01-08T07:38:23;6.45;;;3.95;;
29330;SDS011;16331;52.528;13.342;2023-01-08T07:40:49;8.73;;;4.47;;
29330;SDS011;16331;52.528;13.342;2023-01-08T07:43:17;7.03;;;3.97;;
29330;SDS011;16331;52.528;13.342;2023-01-08T07:45:43;8.50;;;3.92;;
29330;SDS011;16331;52.528;13.342;2023-01-08T07:48:09;8.68;;;4.18;;
29330;SDS011;16331;52.528;13.342;2023-01-08T07:50:39;10.70;;;4.20;;
29330;SDS011;16331;52.528;13.342;2023-01-08T07:53:09;7.05;;;3.97;;
29330;SDS011;16331;52.528;13.342;2023-01-08T07:55:36;8.70;;;4.38;;
29330;SDS011;16331;52.528;13.342;2023-01-08T07:58:07;8.68;;;4.50;;
29330;SDS011;16331;52.528;13.342;2023-01-08T08:00:34;5.83;;;3.60;;
29330;SDS011;16331;52.528;13.342;2023-01-08T08:03:05;7.43;;;3.92;;
29330;SDS011;16331;52.528;13.342;2023-01-08T08:05:35;10.95;;;4.50;;
29330;SDS011;16331;52.528;13.342;2023-01-08T08:08:01;7.30;;;3.85;;
29330;SDS011;16331;52.528;13.342;2023-01-08T08:10:36;8.18;;;4.32;;
29330;SDS011;16331;52.528;13.342;2023-01-08T08:13:02;6.60;;;3.88;;
29330;SDS011;16331;52.528;13.342;2023-01-08T08:15:29;7.63;;;4.45;;
29330;SDS011;16331;52.528;13.342;2023-01-08T08:17:55;9.75;;;4.07;;
29330;SDS011;16331;52.528;13.342;2023-01-08T08:20:21;8.07;;;3.90;;
29330;SDS011;16331;52.528;13.342;2023-01-08T08:22:47;10.25;;;4.68;;
29330;SDS011;16331;52.528;13.342;2023-01-08T08:25:14;7.07;;;3.67;;
29330;SDS011;16331;52.528;13.342;2023-01-08T08:27:40;9.50;;;4.05;;
29330;SDS011;16331;52.528;13.342;2023-01-08T08:30:08;10.55;;;4.70;;
29330;SDS011;16331;52.528;13.342;2023-01-08T08:32:36;8.55;;;4.63;;
29330;SDS011;16331;52.528;13.342;2023-01-08T08:35:04;8.02;;;4.38;;
29330;SDS011;16331;52.528;13.342;2023-01-08T08:37:30;9.93;;;4.53;;
29330;SDS011;16331;52.528;13.342;2023-01-08T08:39:56;10.43;;;4.68;;
29330;SDS011;16331;52.528;13.342;2023-01-08T08:42:23;10.32;;;4.10;;
29330;SDS011;16331;52.528;13.342;2023-01-08T08:44:49;9.52;;;4.80;;
29330;SDS011;16331;52.528;13.342;2023-01-08T08:47:15;9.65;;;4.68;;
29330;SDS011;16331;52.528;13.342;2023-01-08T08:49:42;12.30;;;4.88;;
29330;SDS011;16331;52.528;13.342;2023-01-08T08:52:08;9.77;;;4.00;;
29330;SDS011;16331;52.528;13.342;2023-01-08T08:54:34;8.75;;;4.18;;
29330;SDS011;16331;52.528;13.342;2023-01-08T08:57:02;7.63;;;4.20;;
29330;SDS011;16331;52.528;13.342;2023-01-08T08:59:28;7.60;;;4.43;;
29330;SDS011;16331;52.528;13.342;2023-01-08T09:01:54;8.65;;;4.50;;
29330;SDS011;16331;52.528;13.342;2023-01-08T09:04:21;8.05;;;4.05;;
29330;SDS011;16331;52.528;13.342;2023-01-08T09:06:47;7.00;;;4.22;;
29330;SDS011;16331;52.528;13.342;2023-01-08T09:09:13;9.00;;;4.63;;
29330;SDS011;16331;52.528;13.342;2023-01-08T09:11:39;9.32;;;4.32;;
29330;SDS011;16331;52.528;13.342;2023-01-08T09:14:05;9.93;;;4.38;;
29330;SDS011;16331;52.528;13.342;2023-01-08T09:16:33;6.72;;;4.03;;
29330;SDS011;16331;52.528;13.342;2023-01-08T09:19:01;7.75;;;3.75;;
29330;SDS011;16331;52.528;13.342;2023-01-08T09:21:28;6.68;;;4.05;;
29330;SDS011;16331;52.528;13.342;2023-01-08T09:23:54;9.10;;;3.75;;
29330;SDS011;16331;52.528;13.342;2023-01-08T09:26:20;7.28;;;4.43;;
29330;SDS011;16331;52.528;13.342;2023-01-08T09:28:46;5.95;;;3.53;;
29330;SDS011;16331;52.528;13.342;2023-01-08T09:31:13;8.10;;;3.92;;
29330;SDS011;16331;52.528;13.342;2023-01-08T09:33:39;6.22;;;3.33;;
29330;SDS011;16331;52.528;13.342;2023-01-08T09:36:08;7.60;;;3.72;;
29330;SDS011;16331;52.528;13.342;2023-01-08T09:38:37;8.32;;;4.07;;
29330;SDS011;16331;52.528;13.342;2023-01-08T09:41:07;7.18;;;4.00;;
29330;SDS011;16331;52.528;13.342;2023-01-08T09:43:37;7.38;;;4.35;;
29330;SDS011;16331;52.528;13.342;2023-01-08T09:46:07;7.75;;;4.20;;
29330;SDS011;16331;52.528;13.342;2023-01-08T09:48:37;8.75;;;3.83;;
29330;SDS011;16331;52.528;13.342;2023-01-08T09:51:17;6.65;;;4.13;;
29330;SDS011;16331;52.528;13.342;2023-01-08T09:53:44;7.80;;;4.28;;
29330;SDS011;16331;52.528;13.342;2023-01-08T09:56:19;7.00;;;3.33;;
29330;SDS011;16331;52.528;13.342;2023-01-08T10:04:05;6.75;;;3.78;;
29330;SDS011;16331;52.528;13.342;2023-01-08T10:06:39;6.95;;;3.70;;
29330;SDS011;16331;52.528;13.342;2023-01-08T10:09:11;6.00;;;3.65;;
29330;SDS011;16331;52.528;13.342;2023-01-08T10:11:42;6.60;;;3.67;;
29330;SDS011;16331;52.528;13.342;2023-01-08T10:14:31;9.80;;;3.75;;
29330;SDS011;16331;52.528;13.342;2023-01-08T10:17:11;7.50;;;3.88;;
29330;SDS011;16331;52.528;13.342;2023-01-08T10:19:42;7.57;;;3.75;;
29330;SDS011;16331;52.528;13.342;2023-01-08T10:22:10;5.20;;;3.15;;
29330;SDS011;16331;52.528;13.342;2023-01-08T10:24:40;9.40;;;4.03;;
29330;SDS011;16331;52.528;13.342;2023-01-08T10:27:11;12.55;;;4.70;;
29330;SDS011;16331;52.528;13.342;2023-01-08T10:29:40;6.82;;;4.03;;
29330;SDS011;16331;52.528;13.342;2023-01-08T10:32:08;9.15;;;4.60;;
29330;SDS011;16331;52.528;13.342;2023-01-08T10:40:22;7.38;;;4.22;;
29330;SDS011;16331;52.528;13.342;2023-01-08T10:43:07;13.57;;;4.93;;
29330;SDS011;16331;52.528;13.342;2023-01-08T10:45:39;10.30;;;4.97;;
29330;SDS011;16331;52.528;13.342;2023-01-08T10:48:06;9.70;;;5.38;;
29330;SDS011;16331;52.528;13.342;2023-01-08T10:50:41;9.38;;;4.18;;
29330;SDS011;16331;52.528;13.342;2023-01-08T10:53:24;11.40;;;5.03;;
29330;SDS011;16331;52.528;13.342;2023-01-08T10:55:59;12.57;;;4.43;;
29330;SDS011;16331;52.528;13.342;2023-01-08T10:58:29;10.07;;;4.88;;
29330;SDS011;16331;52.528;13.342;2023-01-08T11:04:01;10.00;;;4.75;;
29330;SDS011;16331;52.528;13.342;2023-01-08T11:06:30;7.82;;;4.72;;
29330;SDS011;16331;52.528;13.342;2023-01-08T11:09:03;13.00;;;4.80;;
29330;SDS011;16331;52.528;13.342;2023-01-08T11:11:52;12.07;;;4.68;;
29330;SDS011;16331;52.528;13.342;2023-01-08T11:14:21;9.35;;;4.57;;
29330;SDS011;16331;52.528;13.342;2023-01-08T11:16:54;12.77;;;5.85;;
29330;SDS011;16331;52.528;13.342;2023-01-08T11:19:22;9.48;;;5.03;;
29330;SDS011;16331;52.528;13.342;2023-01-08T11:22:01;11.48;;;4.88;;
29330;SDS011;16331;52.528;13.342;2023-01-08T11:24:33;8.45;;;4.82;;
29330;SDS011;16331;52.528;13.342;2023-01-08T11:27:05;10.07;;;5.00;;
29330;SDS011;16331;52.528;13.342;2023-01-08T11:32:50;10.20;;;4.78;;
29330;SDS011;16331;52.528;13.342;2023-01-08T11:35:35;10.63;;;5.22;;
29330;SDS011;16331;52.528;13.342;2023-01-08T11:38:05;8.48;;;3.63;;
29330;SDS011;16331;52.528;13.342;2023-01-08T11:40:43;12.02;;;4.60;;
29330;SDS011;16331;52.528;13.342;2023-01-08T11:43:41;10.77;;;5.40;;
29330;SDS011;16331;52.528;13.342;2023-01-08T11:46:36;13.90;;;5.32;;
29330;SDS011;16331;52.528;13.342;2023-01-08T11:52:22;10.85;;;5.18;;
29330;SDS011;16331;52.528;13.342;2023-01-08T11:55:23;9.40;;;4.47;;
29330;SDS011;16331;52.528;13.342;2023-01-08T11:58:09;9.65;;;5.15;;
29330;SDS011;16331;52.528;13.342;2023-01-08T12:01:06;9.38;;;4.85;;
29330;SDS011;16331;52.528;13.342;2023-01-08T12:03:36;7.07;;;4.43;;
29330;SDS011;16331;52.528;13.342;2023-01-08T12:06:19;13.10;;;4.80;;
29330;SDS011;16331;52.528;13.342;2023-01-08T12:09:07;10.20;;;5.07;;
29330;SDS011;16331;52.528;13.342;2023-01-08T12:11:50;9.82;;;4.10;;
29330;SDS011;16331;52.528;13.342;2023-01-08T12:17:11;14.18;;;4.55;;
29330;SDS011;16331;52.528;13.342;2023-01-08T12:22:43;7.95;;;4.70;;
29330;SDS011;16331;52.528;13.342;2023-01-08T12:25:20;10.23;;;4.53;;
29330;SDS011;16331;52.528;13.342;2023-01-08T12:28:05;10.85;;;4.60;;
29330;SDS011;16331;52.528;13.342;2023-01-08T12:33:50;7.80;;;4.07;;
29330;SDS011;16331;52.528;13.342;2023-01-08T12:36:31;7.40;;;3.60;;
29330;SDS011;16331;52.528;13.342;2023-01-08T12:39:03;8.05;;;3.63;;
29330;SDS011;16331;52.528;13.342;2023-01-08T12:41:46;12.25;;;5.38;;
29330;SDS011;16331;52.528;13.342;2023-01-08T12:44:19;12.05;;;4.20;;
29330;SDS011;16331;52.528;13.342;2023-01-08T12:46:50;11.05;;;5.32;;
29330;SDS011;16331;52.528;13.342;2023-01-08T12:49:23;11.38;;;4.18;;
29330;SDS011;16331;52.528;13.342;2023-01-08T12:52:01;7.00;;;4.00;;
29330;SDS011;16331;52.528;13.342;2023-01-08T12:57:21;7.65;;;3.80;;
29330;SDS011;16331;52.528;13.342;2023-01-08T12:59:59;7.63;;;3.47;;
29330;SDS011;16331;52.528;13.342;2023-01-08T13:02:51;10.90;;;3.95;;
29330;SDS011;16331;52.528;13.342;2023-01-08T13:05:48;11.65;;;4.47;;
29330;SDS011;16331;52.528;13.342;2023-01-08T13:08:29;11.23;;;4.28;;
29330;SDS011;16331;52.528;13.342;2023-01-08T13:11:00;9.95;;;4.80;;
29330;SDS011;16331;52.528;13.342;2023-01-08T13:13:31;8.48;;;4.10;;
29330;SDS011;16331;52.528;13.342;2023-01-08T13:16:14;8.95;;;4.40;;
29330;SDS011;16331;52.528;13.342;2023-01-08T13:18:50;9.68;;;5.00;;
29330;SDS011;16331;52.528;13.342;2023-01-08T13:21:17;7.97;;;4.07;;
29330;SDS011;16331;52.528;13.342;2023-01-08T13:23:57;9.38;;;4.97;;
29330;SDS011;16331;52.528;13.342;2023-01-08T13:26:29;8.90;;;4.85;;
29330;SDS011;16331;52.528;13.342;2023-01-08T13:31:52;12.23;;;4.95;;
29330;SDS011;16331;52.528;13.342;2023-01-08T13:34:32;11.32;;;5.18;;
29330;SDS011;16331;52.528;13.342;2023-01-08T13:37:07;13.95;;;5.30;;
29330;SDS011;16331;52.528;13.342;2023-01-08T13:39:37;8.43;;;5.13;;
29330;SDS011;16331;52.528;13.342;2023-01-08T13:42:14;10.70;;;5.18;;
29330;SDS011;16331;52.528;13.342;2023-01-08T13:44:48;13.38;;;5.40;;
29330;SDS011;16331;52.528;13.342;2023-01-08T13:47:34;9.55;;;4.30;;
29330;SDS011;16331;52.528;13.342;2023-01-08T13:50:16;10.15;;;5.28;;
29330;SDS011;16331;52.528;13.342;2023-01-08T13:52:47;9.52;;;4.80;;
29330;SDS011;16331;52.528;13.342;2023-01-08T13:55:30;10.25;;;5.05;;
29330;SDS011;16331;52.528;13.342;2023-01-08T13:58:02;13.35;;;5.90;;
29330;SDS011;16331;52.528;13.342;2023-01-08T14:00:42;11.18;;;4.90;;
29330;SDS011;16331;52.528;13.342;2023-01-08T14:03:24;13.32;;;6.63;;
29330;SDS011;16331;52.528;13.342;2023-01-08T14:06:03;10.65;;;5.47;;
29330;SDS011;16331;52.528;13.342;2023-01-08T14:08:33;13.30;;;5.93;;
29330;SDS011;16331;52.528;13.342;2023-01-08T14:11:00;11.77;;;5.63;;
29330;SDS011;16331;52.528;13.342;2023-01-08T14:13:28;14.15;;;7.10;;
29330;SDS011;16331;52.528;13.342;2023-01-08T14:16:00;12.15;;;6.38;;
29330;SDS011;16331;52.528;13.342;2023-01-08T14:18:29;18.17;;;6.90;;
29330;SDS011;16331;52.528;13.342;2023-01-08T14:23:29;18.13;;;6.70;;
29330;SDS011;16331;52.528;13.342;2023-01-08T14:26:04;18.05;;;6.88;;
29330;SDS011;16331;52.528;13.342;2023-01-08T14:28:52;16.35;;;6.88;;
29330;SDS011;16331;52.528;13.342;2023-01-08T14:31:19;22.25;;;8.63;;
29330;SDS011;16331;52.528;13.342;2023-01-08T14:33:50;16.40;;;7.47;;
29330;SDS011;16331;52.528;13.342;2023-01-08T14:36:19;14.93;;;6.18;;
29330;SDS011;16331;52.528;13.342;2023-01-08T14:38:46;9.93;;;5.32;;
29330;SDS011;16331;52.528;13.342;2023-01-08T14:41:14;15.50;;;6.10;;
29330;SDS011;16331;52.528;13.342;2023-01-08T14:43:47;19.63;;;8.80;;
29330;SDS011;16331;52.528;13.342;2023-01-08T14:48:48;11.75;;;6.18;;
29330;SDS011;16331;52.528;13.342;2023-01-08T14:51:20;11.68;;;6.20;;
29330;SDS011;16331;52.528;13.342;2023-01-08T14:53:50;15.02;;;6.90;;
29330;SDS011;16331;52.528;13.342;2023-01-08T14:56:21;15.68;;;6.32;;
29330;SDS011;16331;52.528;13.342;2023-01-08T14:58:52;14.85;;;6.85;;
29330;SDS011;16331;52.528;13.342;2023-01-08T15:01:37;18.60;;;6.78;;
29330;SDS011;16331;52.528;13.342;2023-01-08T15:04:05;14.20;;;7.00;;
29330;SDS011;16331;52.528;13.342;2023-01-08T15:06:42;16.30;;;6.95;;
29330;SDS011;16331;52.528;13.342;2023-01-08T15:09:40;14.50;;;7.38;;
29330;SDS011;16331;52.528;13.342;2023-01-08T15:12:20;14.18;;;7.20;;
29330;SDS011;16331;52.528;13.342;2023-01-08T15:14:51;15.27;;;7.88;;
29330;SDS011;16331;52.528;13.342;2023-01-08T15:17:19;16.75;;;7.05;;
29330;SDS011;16331;52.528;13.342;2023-01-08T15:19:52;16.08;;;6.65;;
29330;SDS011;16331;52.528;13.342;2023-01-08T15:22:22;10.98;;;5.82;;
29330;SDS011;16331;52.528;13.342;2023-01-08T15:24:55;13.90;;;6.07;;
29330;SDS011;16331;52.528;13.342;2023-01-08T15:27:30;13.27;;;6.80;;
29330;SDS011;16331;52.528;13.342;2023-01-08T15:30:02;16.42;;;7.93;;
29330;SDS011;16331;52.528;13.342;2023-01-08T15:32:31;16.33;;;7.47;;
29330;SDS011;16331;52.528;13.342;2023-01-08T15:34:59;15.45;;;6.82;;
29330;SDS011;16331;52.528;13.342;2023-01-08T15:37:25;23.13;;;7.47;;
29330;SDS011;16331;52.528;13.342;2023-01-08T15:39:52;15.55;;;7.30;;
29330;SDS011;16331;52.528;13.342;2023-01-08T15:42:23;14.95;;;7.10;;
29330;SDS011;16331;52.528;13.342;2023-01-08T15:45:25;16.35;;;6.88;;
29330;SDS011;16331;52.528;13.342;2023-01-08T15:47:53;14.63;;;6.43;;